createdAt,value
2022-09-20T00:01:15.576Z,95080.97
2022-09-20T00:03:46.923Z,95080.00
2022-09-20T00:06:16.486Z,95086.06
2022-09-20T00:08:44.068Z,95063.66
2022-09-20T00:11:15.451Z,95084.97
2022-09-20T00:13:43.808Z,95084.22
2022-09-20T00:16:14.452Z,95091.31
2022-09-20T00:18:41.956Z,95087.41
2022-09-20T00:21:16.495Z,95084.38
2022-09-20T00:23:43.119Z,95085.88
2022-09-20T00:26:09.723Z,95093.28
2022-09-20T00:28:36.333Z,95088.91
2022-09-20T00:31:03.021Z,95088.16
2022-09-20T00:33:49.610Z,95090.72
2022-09-20T00:36:16.723Z,95073.00
2022-09-20T00:38:43.284Z,95086.63
2022-09-20T00:41:10.226Z,95100.22
2022-09-20T00:43:42.796Z,95102.63
2022-09-20T00:46:37.992Z,95098.28
2022-09-20T00:49:27.597Z,95101.69
2022-09-20T00:52:00.904Z,95093.78
2022-09-20T00:54:30.383Z,95091.53
2022-09-20T00:56:57.941Z,95097.16
2022-09-20T00:59:30.481Z,95098.97
2022-09-20T01:02:05.627Z,95099.63
2022-09-20T01:04:35.583Z,95090.25
2022-09-20T01:07:05.695Z,95096.91
2022-09-20T01:09:32.284Z,95097.50
2022-09-20T01:12:04.258Z,95092.34
2022-09-20T01:14:31.025Z,95099.66
2022-09-20T01:17:02.672Z,95095.75
2022-09-20T01:19:47.345Z,95096.09
2022-09-20T01:22:55.895Z,95100.03
2022-09-20T01:25:54.645Z,95095.44
2022-09-20T01:28:21.705Z,95098.06
2022-09-20T01:31:25.855Z,95093.47
2022-09-20T01:33:58.385Z,95084.06
2022-09-20T01:36:35.142Z,95089.94
2022-09-20T01:39:15.247Z,95075.84
2022-09-20T01:41:50.506Z,95099.03
2022-09-20T01:44:30.147Z,95093.97
2022-09-20T01:47:09.655Z,95103.31
2022-09-20T01:50:04.034Z,95112.44
2022-09-20T01:53:23.362Z,95115.38
2022-09-20T01:56:11.510Z,95120.31
2022-09-20T01:59:22.582Z,95109.38
2022-09-20T02:02:11.406Z,95113.50
2022-09-20T02:05:19.652Z,95091.16
2022-09-20T02:08:01.710Z,95091.25
2022-09-20T02:10:47.449Z,95093.97
2022-09-20T02:13:47.439Z,95065.44
2022-09-20T02:16:17.091Z,95081.94
2022-09-20T02:19:07.959Z,95078.34
2022-09-20T02:21:49.615Z,95083.59
2022-09-20T02:24:53.010Z,95089.78
2022-09-20T02:27:50.551Z,95084.47
2022-09-20T02:30:44.877Z,95084.56
2022-09-20T02:33:23.803Z,95094.56
2022-09-20T02:36:14.906Z,95100.44
2022-09-20T02:38:41.413Z,95095.13
2022-09-20T02:41:10.749Z,95102.91
2022-09-20T02:43:46.416Z,95101.41
2022-09-20T02:46:39.039Z,95106.72
2022-09-20T02:49:28.715Z,95102.81
2022-09-20T02:52:01.029Z,95111.38
2022-09-20T02:54:39.633Z,95110.94
2022-09-20T02:57:15.912Z,95111.72
2022-09-20T02:59:49.589Z,95113.22
2022-09-20T03:02:29.106Z,95115.41
2022-09-20T03:05:01.703Z,95107.91
2022-09-20T03:08:02.910Z,95088.00
2022-09-20T03:10:58.934Z,95107.72
2022-09-20T03:13:31.583Z,95107.81
2022-09-20T03:16:09.612Z,95102.19
2022-09-20T03:19:07.817Z,95113.91
2022-09-20T03:21:59.943Z,95119.63
2022-09-20T03:25:04.915Z,95124.31
2022-09-20T03:27:46.066Z,95126.78
2022-09-20T03:30:34.622Z,95118.13
2022-09-20T03:33:10.041Z,95123.09
2022-09-20T03:36:08.810Z,95117.81
2022-09-20T03:39:11.210Z,95115.63
2022-09-20T03:42:07.288Z,95121.03
2022-09-20T03:45:11.273Z,95117.69
2022-09-20T03:47:58.323Z,95111.28
2022-09-20T03:50:44.571Z,95118.22
2022-09-20T03:53:48.600Z,95111.84
2022-09-20T03:56:15.151Z,95123.44
2022-09-20T03:59:09.028Z,95122.25
2022-09-20T04:01:51.235Z,95130.38
2022-09-20T04:04:34.435Z,95119.75
2022-09-20T04:07:19.848Z,95124.84
2022-09-20T04:10:25.791Z,95132.22
2022-09-20T04:12:58.069Z,95140.03
2022-09-20T04:15:32.518Z,95138.63
2022-09-20T04:18:28.939Z,95138.50
2022-09-20T04:21:32.001Z,95148.78
2022-09-20T04:24:17.485Z,95149.56
2022-09-20T04:26:51.999Z,95153.56
2022-09-20T04:29:33.738Z,95144.25
2022-09-20T04:32:23.073Z,95152.81
2022-09-20T04:35:53.937Z,95150.09
2022-09-20T04:38:21.498Z,95151.41
2022-09-20T04:41:00.162Z,95159.53
2022-09-20T04:44:12.030Z,95145.13
2022-09-20T04:47:36.315Z,95157.59
2022-09-20T04:50:07.699Z,95156.91
2022-09-20T04:52:46.929Z,95159.22
2022-09-20T04:55:28.948Z,95157.72
2022-09-20T04:58:27.208Z,95159.53
2022-09-20T05:01:19.690Z,95160.94
2022-09-20T05:03:49.871Z,95166.47
2022-09-20T05:07:01.346Z,95170.81
2022-09-20T05:09:48.963Z,95156.34
2022-09-20T05:12:34.537Z,95162.06
2022-09-20T05:15:04.059Z,95163.41
2022-09-20T05:17:37.220Z,95168.50
2022-09-20T05:20:14.380Z,95175.97
2022-09-20T05:22:52.995Z,95176.13
2022-09-20T05:25:22.517Z,95171.69
2022-09-20T05:28:34.867Z,95162.22
2022-09-20T05:31:06.274Z,95174.50
2022-09-20T05:33:45.114Z,95161.44
2022-09-20T05:36:23.557Z,95172.53
2022-09-20T05:39:03.524Z,95151.78
2022-09-20T05:41:47.412Z,95165.69
2022-09-20T05:44:19.865Z,95167.16
2022-09-20T05:47:05.260Z,95168.38
2022-09-20T05:49:44.088Z,95168.66
2022-09-20T05:52:44.603Z,95172.00
2022-09-20T05:55:32.370Z,95168.22
2022-09-20T05:58:30.282Z,95171.28
2022-09-20T06:01:23.367Z,95174.63
2022-09-20T06:03:57.024Z,95169.03
2022-09-20T06:06:38.098Z,95159.78
2022-09-20T06:09:13.391Z,95172.06
2022-09-20T06:12:11.470Z,95179.47
2022-09-20T06:15:00.140Z,95167.88
2022-09-20T06:17:35.981Z,95173.63
2022-09-20T06:20:21.051Z,95178.94
2022-09-20T06:22:51.535Z,95171.66
2022-09-20T06:25:31.293Z,95175.31
2022-09-20T06:28:30.549Z,95166.41
2022-09-20T06:30:57.697Z,95171.44
2022-09-20T06:33:26.561Z,95168.06
2022-09-20T06:36:23.050Z,95173.25
2022-09-20T06:39:39.354Z,95168.00
2022-09-20T06:42:06.640Z,95156.41
2022-09-20T06:44:42.127Z,95167.41
2022-09-20T06:47:14.521Z,95169.88
2022-09-20T06:49:42.464Z,95165.31
2022-09-20T06:52:14.564Z,95165.69
2022-09-20T06:54:47.110Z,95166.16
2022-09-20T06:57:20.405Z,95180.03
2022-09-20T06:59:46.957Z,95182.66
2022-09-20T07:02:13.662Z,95190.72
2022-09-20T07:04:40.247Z,95189.81
2022-09-20T07:07:09.733Z,95187.22
2022-09-20T07:09:36.420Z,95195.97
2022-09-20T07:12:03.135Z,95190.97
2022-09-20T07:14:32.673Z,95191.13
2022-09-20T07:16:59.347Z,95187.84
2022-09-20T07:19:25.894Z,95195.75
2022-09-20T07:21:52.540Z,95203.13
2022-09-20T07:24:20.142Z,95198.22
2022-09-20T07:27:00.618Z,95192.28
2022-09-20T07:29:28.787Z,95194.38
2022-09-20T07:31:56.752Z,95193.66
2022-09-20T07:34:24.885Z,95186.41
2022-09-20T07:36:52.326Z,95178.47
2022-09-20T07:39:19.001Z,95180.91
2022-09-20T07:41:48.595Z,95178.44
2022-09-20T07:44:22.297Z,95186.03
2022-09-20T07:46:53.918Z,95174.13
2022-09-20T07:49:21.886Z,95168.94
2022-09-20T07:51:50.098Z,95181.56
2022-09-20T07:54:18.172Z,95179.22
2022-09-20T07:56:47.061Z,95174.63
2022-09-20T07:59:14.487Z,95169.97
2022-09-20T08:01:42.320Z,95177.16
2022-09-20T08:04:10.120Z,95159.84
2022-09-20T08:06:40.953Z,95168.81
2022-09-20T08:09:11.191Z,95163.66
2022-09-20T08:11:39.590Z,95163.25
2022-09-20T08:14:09.065Z,95153.22
2022-09-20T08:16:41.176Z,95149.16
2022-09-20T08:19:08.151Z,95170.03
2022-09-20T08:21:35.957Z,95172.13
2022-09-20T08:24:03.975Z,95165.81
2022-09-20T08:26:31.764Z,95180.88
2022-09-20T08:29:00.304Z,95162.47
2022-09-20T08:31:30.757Z,95166.91
2022-09-20T08:33:59.173Z,95167.47
2022-09-20T08:36:26.305Z,95158.00
2022-09-20T08:41:48.279Z,95139.81
2022-09-20T08:44:45.032Z,95123.44
2022-09-20T08:47:27.405Z,95126.03
2022-09-20T08:49:57.275Z,95153.72
2022-09-20T08:52:36.909Z,95144.28
2022-09-20T08:55:16.731Z,95150.53
2022-09-20T08:57:44.830Z,95150.09
2022-09-20T09:00:18.329Z,95149.78
2022-09-20T09:02:45.335Z,95146.88
2022-09-20T09:05:32.698Z,95141.69
2022-09-20T09:08:04.592Z,95122.91
2022-09-20T09:10:42.580Z,95126.63
2022-09-20T09:13:19.535Z,95129.47
2022-09-20T09:15:53.527Z,95127.81
2022-09-20T09:18:20.068Z,95129.19
2022-09-20T09:20:47.154Z,95115.31
2022-09-20T09:23:27.109Z,95123.50
2022-09-20T09:25:55.288Z,95123.69
2022-09-20T09:28:29.388Z,95104.78
2022-09-20T09:31:12.967Z,95106.13
2022-09-20T09:33:47.061Z,95099.69
2022-09-20T09:36:16.492Z,95103.34
2022-09-20T09:38:45.578Z,95107.53
2022-09-20T09:41:17.995Z,95086.97
2022-09-20T09:43:59.338Z,95098.88
2022-09-20T09:46:31.126Z,95088.72
2022-09-20T09:49:15.482Z,95073.56
2022-09-20T09:52:02.160Z,95096.94
2022-09-20T09:54:31.491Z,95091.75
2022-09-20T09:57:17.441Z,95106.41
2022-09-20T10:00:05.907Z,95086.91
2022-09-20T10:02:49.488Z,95102.47
2022-09-20T10:05:27.773Z,95096.78
2022-09-20T10:08:02.196Z,95079.72
2022-09-20T10:10:51.102Z,95086.38
2022-09-20T10:13:41.194Z,95087.88
2022-09-20T10:16:14.759Z,95094.50
2022-09-20T10:18:45.651Z,95087.31
2022-09-20T10:21:25.214Z,95083.44
2022-09-20T10:24:13.476Z,95088.06
2022-09-20T10:26:44.105Z,95085.94
2022-09-20T10:29:28.830Z,95082.13
2022-09-20T10:32:19.316Z,95083.63
2022-09-20T10:35:08.318Z,95086.31
2022-09-20T10:37:49.371Z,95085.69
2022-09-20T10:40:46.950Z,95080.00
2022-09-20T10:43:26.273Z,95086.56
2022-09-20T10:46:33.305Z,95082.19
2022-09-20T10:49:28.927Z,95086.81
2022-09-20T10:52:05.175Z,95080.69
2022-09-20T10:54:53.090Z,95095.25
2022-09-20T10:57:35.337Z,95016.59
2022-09-20T11:00:22.392Z,95078.78
2022-09-20T11:03:15.900Z,95070.53
2022-09-20T11:06:22.153Z,95073.50
2022-09-20T11:08:55.816Z,95055.34
2022-09-20T11:11:42.515Z,95059.78
2022-09-20T11:14:35.491Z,95072.03
2022-09-20T11:17:09.529Z,95059.16
2022-09-20T11:20:17.697Z,95049.09
2022-09-20T11:23:00.263Z,95066.16
2022-09-20T11:25:44.957Z,95054.16
2022-09-20T11:28:21.166Z,95053.94
2022-09-20T11:31:15.141Z,95061.72
2022-09-20T11:33:52.186Z,95053.22
2022-09-20T11:36:30.130Z,95058.72
2022-09-20T11:39:21.768Z,95045.16
2022-09-20T11:41:52.176Z,95039.31
2022-09-20T11:44:19.958Z,95056.50
2022-09-20T11:47:02.921Z,95048.81
2022-09-20T11:49:50.400Z,95047.09
2022-09-20T11:52:47.397Z,95032.63
2022-09-20T11:55:34.055Z,95030.72
2022-09-20T11:58:23.455Z,95039.06
2022-09-20T12:00:54.468Z,95032.22
2022-09-20T12:03:36.258Z,95033.47
2022-09-20T12:06:07.315Z,95035.00
2022-09-20T12:08:40.796Z,95029.81
2022-09-20T12:11:10.736Z,95033.34
2022-09-20T12:13:40.024Z,95027.53
2022-09-20T12:16:35.599Z,95018.31
2022-09-20T12:19:08.480Z,95026.09
2022-09-20T12:21:59.921Z,95030.50
2022-09-20T12:24:45.126Z,95027.03
2022-09-20T12:27:27.571Z,95029.84
2022-09-20T12:30:17.503Z,95027.78
2022-09-20T12:33:02.319Z,95030.31
2022-09-20T12:35:44.449Z,95025.28
2022-09-20T12:38:20.210Z,95020.78
2022-09-20T12:41:05.557Z,95025.75
2022-09-20T12:43:36.980Z,95029.25
2022-09-20T12:46:09.907Z,95008.00
2022-09-20T12:48:38.792Z,95033.78
2022-09-20T12:51:51.724Z,95022.22
2022-09-20T12:54:18.768Z,95020.69
2022-09-20T12:56:46.741Z,95025.66
2022-09-20T12:59:31.133Z,95027.97
2022-09-20T13:02:36.251Z,95030.47
2022-09-20T13:05:03.042Z,95022.13
2022-09-20T13:07:43.327Z,95000.84
2022-09-20T13:51:28.167Z,94999.13
2022-09-20T13:54:17.730Z,95005.66
2022-09-20T13:56:46.555Z,95005.16
2022-09-20T13:59:19.367Z,95002.09
2022-09-20T14:01:55.502Z,94993.66
2022-09-20T14:04:24.709Z,94996.41
2022-09-20T14:06:53.695Z,94982.13
2022-09-20T14:09:39.432Z,94986.22
2022-09-20T14:12:07.229Z,94990.22
2022-09-20T14:14:34.947Z,94988.75
2022-09-20T14:17:06.277Z,94993.97
2022-09-20T14:19:40.801Z,94994.72
2022-09-20T14:22:08.469Z,94995.69
2022-09-20T14:24:37.366Z,94999.16
2022-09-20T14:27:21.424Z,94984.69
2022-09-20T14:29:50.531Z,94999.66
2022-09-20T14:32:17.091Z,94999.88
2022-09-20T14:34:47.255Z,94988.53
2022-09-20T14:37:22.408Z,94987.31
2022-09-20T14:39:53.844Z,94995.50
2022-09-20T14:42:44.026Z,95003.53
2022-09-20T14:45:25.967Z,94995.31
2022-09-20T14:47:57.110Z,95003.34
2022-09-20T14:50:52.990Z,95002.78
2022-09-20T14:53:23.790Z,95000.41
2022-09-20T14:56:04.588Z,95002.41
2022-09-20T14:58:31.579Z,95002.44
2022-09-20T15:01:23.648Z,95009.72
2022-09-20T15:03:51.132Z,95011.69
2022-09-20T15:06:17.806Z,95006.72
2022-09-20T15:08:46.682Z,95005.75
2022-09-20T15:11:17.999Z,95004.03
2022-09-20T15:13:45.087Z,95001.84
2022-09-20T15:16:17.623Z,94998.06
2022-09-20T15:18:44.835Z,95009.25
2022-09-20T15:21:11.547Z,95010.34
2022-09-20T15:23:38.930Z,95010.06
2022-09-20T15:26:06.474Z,95012.97
2022-09-20T15:28:36.485Z,94995.63
2022-09-20T15:31:03.106Z,94995.25
2022-09-20T15:33:32.058Z,95006.22
2022-09-20T15:35:59.396Z,94994.25
2022-09-20T15:38:27.145Z,95005.72
2022-09-20T15:40:54.455Z,95009.16
2022-09-20T15:43:25.829Z,95014.63
2022-09-20T15:46:00.381Z,95007.31
2022-09-20T15:48:30.007Z,95014.03
2022-09-20T15:51:08.623Z,95014.75
2022-09-20T15:53:38.372Z,95010.91
2022-09-20T15:56:15.619Z,95014.47
2022-09-20T15:58:48.815Z,95017.06
2022-09-20T16:01:19.535Z,95017.97
2022-09-20T16:03:46.987Z,95013.91
2022-09-20T16:06:14.124Z,95021.50
2022-09-20T16:08:42.585Z,95021.38
2022-09-20T16:11:13.141Z,95020.09
2022-09-20T16:13:40.162Z,95011.75
2022-09-20T16:16:09.234Z,95015.97
2022-09-20T16:18:55.437Z,95025.09
2022-09-20T16:21:22.338Z,95026.19
2022-09-20T16:23:54.738Z,95016.41
2022-09-20T16:26:23.905Z,95016.69
2022-09-20T16:28:51.039Z,95030.28
2022-09-20T16:31:34.941Z,95040.44
2022-09-20T16:34:08.295Z,95031.84
2022-09-20T16:36:34.939Z,95046.41
2022-09-20T16:39:01.568Z,95032.22
2022-09-20T16:41:28.667Z,95033.06
2022-09-20T16:43:55.981Z,95041.88
2022-09-20T16:46:25.288Z,95027.81
2022-09-20T16:48:53.764Z,95043.75
2022-09-20T16:51:26.151Z,95049.50
2022-09-20T16:53:56.217Z,95051.63
2022-09-20T16:56:25.679Z,95056.06
2022-09-20T16:58:52.971Z,95056.25
2022-09-20T17:01:20.323Z,95055.66
2022-09-20T17:03:47.737Z,95062.38
2022-09-20T17:06:16.275Z,95054.84
2022-09-20T17:08:46.799Z,95056.81
2022-09-20T17:11:15.419Z,95057.91
2022-09-20T17:13:43.695Z,95058.19
2022-09-20T17:16:12.847Z,95048.25
2022-09-20T17:18:42.835Z,95055.69
2022-09-20T17:21:14.839Z,95062.84
2022-09-20T17:23:50.798Z,95051.97
2022-09-20T17:26:43.624Z,95061.34
2022-09-20T17:29:13.929Z,95065.75
2022-09-20T17:31:44.017Z,95068.47
2022-09-20T17:34:12.233Z,95065.94
2022-09-20T17:36:41.890Z,95060.03
2022-09-20T17:39:11.042Z,95061.84
2022-09-20T17:41:39.436Z,95069.13
2022-09-20T17:44:10.119Z,95071.25
2022-09-20T17:46:39.330Z,95075.81
2022-09-20T17:49:11.638Z,95079.31
2022-09-20T17:51:38.129Z,95078.41
2022-09-20T17:54:05.806Z,95077.97
2022-09-20T17:56:33.436Z,95071.63
2022-09-20T17:59:02.241Z,95085.56
2022-09-20T18:01:30.544Z,95025.03
2022-09-20T18:03:58.827Z,95077.81
2022-09-20T18:06:29.695Z,95086.16
2022-09-20T18:09:02.526Z,95088.44
2022-09-20T18:11:34.883Z,95092.38
2022-09-20T18:14:03.018Z,95086.03
2022-09-20T18:16:31.034Z,95081.47
2022-09-20T18:18:59.817Z,95082.09
2022-09-20T18:21:28.988Z,95089.31
2022-09-20T18:23:57.142Z,95088.41
2022-09-20T18:26:26.232Z,95096.91
2022-09-20T18:29:01.974Z,95094.19
2022-09-20T18:31:33.428Z,95096.16
2022-09-20T18:34:00.898Z,95100.81
2022-09-20T18:36:29.628Z,95101.72
2022-09-20T18:38:57.849Z,95100.03
2022-09-20T18:41:26.672Z,95096.75
2022-09-20T18:43:55.387Z,95100.69
2022-09-20T18:46:27.049Z,95103.44
2022-09-20T18:48:58.423Z,95105.22
2022-09-20T18:51:28.683Z,95107.41
2022-09-20T18:53:56.623Z,95095.13
2022-09-20T18:56:26.116Z,95104.81
2022-09-20T18:58:55.690Z,95103.63
2022-09-20T19:01:25.174Z,95109.22
2022-09-20T19:04:16.824Z,95094.81
2022-09-20T19:06:53.377Z,95100.56
2022-09-20T19:09:30.078Z,95102.41
2022-09-20T19:12:04.097Z,95099.97
2022-09-20T19:14:36.747Z,95110.31
2022-09-20T19:17:04.507Z,95113.59
2022-09-20T19:20:03.854Z,95109.66
2022-09-20T19:23:01.407Z,95102.84
2022-09-20T19:25:40.945Z,95098.41
2022-09-20T19:28:11.267Z,95103.84
2022-09-20T19:30:39.794Z,95125.13
2022-09-20T19:33:16.078Z,95113.03
2022-09-20T19:35:49.607Z,95127.56
2022-09-20T19:38:45.223Z,95128.03
2022-09-20T19:41:39.333Z,95120.28
2022-09-20T19:44:19.162Z,95117.41
2022-09-20T19:47:01.986Z,95123.63
2022-09-20T19:49:40.798Z,95094.50
2022-09-20T19:52:12.163Z,95122.38
2022-09-20T19:54:42.179Z,95117.09
2022-09-20T19:57:37.359Z,95125.84
2022-09-20T20:00:09.202Z,95130.09
2022-09-20T20:02:36.444Z,95133.06
2022-09-20T20:05:03.772Z,95132.44
2022-09-20T20:07:41.464Z,95132.59
2022-09-20T20:10:19.931Z,95137.22
2022-09-20T20:12:55.677Z,95130.88
2022-09-20T20:15:40.476Z,95129.63
2022-09-20T20:18:21.950Z,95135.66
2022-09-20T20:20:50.592Z,95146.69
2022-09-20T20:23:44.697Z,95144.47
2022-09-20T20:26:21.195Z,95131.59
2022-09-20T20:28:48.021Z,95131.06
2022-09-20T20:31:15.070Z,95144.56
2022-09-20T20:33:41.802Z,95151.44
2022-09-20T20:36:12.053Z,95139.28
2022-09-20T20:38:40.419Z,95147.97
2022-09-20T20:41:12.337Z,95118.63
2022-09-20T20:43:41.424Z,95148.50
2022-09-20T20:46:14.340Z,95142.53
2022-09-20T20:48:41.746Z,95138.47
2022-09-20T20:51:11.109Z,95141.44
2022-09-20T20:53:46.512Z,95145.69
2022-09-20T20:56:18.680Z,95141.59
2022-09-20T20:58:46.556Z,95137.72
2022-09-20T21:01:14.897Z,95139.63
2022-09-20T21:03:44.272Z,95138.84
2022-09-20T21:06:10.947Z,95136.75
2022-09-20T21:08:48.294Z,95148.28
2022-09-20T21:11:27.457Z,95141.03
2022-09-20T21:13:55.695Z,95149.75
2022-09-20T21:16:24.854Z,95142.88
2022-09-20T21:18:52.138Z,95149.06
2022-09-20T21:21:20.532Z,95150.28
2022-09-20T21:23:50.830Z,95151.66
2022-09-20T21:26:18.441Z,95160.13
2022-09-20T21:28:50.929Z,95153.16
2022-09-20T21:31:19.078Z,95151.81
2022-09-20T21:33:45.956Z,95150.91
2022-09-20T21:36:15.564Z,95159.66
2022-09-20T21:38:45.649Z,95152.66
2022-09-20T21:41:15.230Z,95152.91
2022-09-20T21:43:43.537Z,95157.25
2022-09-20T21:46:14.380Z,95153.69
2022-09-20T21:48:41.278Z,95158.22
2022-09-20T21:51:10.819Z,95146.81
2022-09-20T21:53:39.206Z,95150.44
2022-09-20T21:56:11.639Z,95151.00
2022-09-20T21:58:42.048Z,95145.16
2022-09-20T22:01:14.184Z,95150.16
2022-09-20T22:03:42.247Z,95145.97
2022-09-20T22:06:17.266Z,95140.53
2022-09-20T22:08:53.067Z,95133.59
2022-09-20T22:11:21.947Z,95126.97
2022-09-20T22:13:50.615Z,95134.31
2022-09-20T22:16:31.547Z,95125.34
2022-09-20T22:19:01.918Z,95134.13
2022-09-20T22:21:37.425Z,95128.81
2022-09-20T22:24:06.761Z,95136.72
2022-09-20T22:26:38.836Z,95130.53
2022-09-20T22:29:06.580Z,95122.00
2022-09-20T22:31:35.476Z,95126.69
2022-09-20T22:34:04.783Z,95135.34
2022-09-20T22:36:39.294Z,95140.16
2022-09-20T22:39:08.066Z,95151.78
2022-09-20T22:41:35.814Z,95129.34
2022-09-20T22:44:03.010Z,95145.00
2022-09-20T22:46:30.897Z,95152.41
2022-09-20T22:48:57.811Z,95147.22
2022-09-20T22:51:30.847Z,95157.63
2022-09-20T22:53:57.630Z,95152.66
2022-09-20T22:56:29.920Z,95155.03
2022-09-20T22:58:57.285Z,95142.91
2022-09-20T23:01:27.341Z,95135.13
2022-09-20T23:03:59.350Z,95138.59
2022-09-20T23:06:29.436Z,95142.50
2022-09-20T23:08:59.229Z,95130.38
2022-09-20T23:11:26.417Z,95138.72
2022-09-20T23:14:00.795Z,95140.13
2022-09-20T23:16:29.623Z,95141.31
2022-09-20T23:18:58.394Z,95143.13
2022-09-20T23:21:25.467Z,95134.91
2022-09-20T23:23:57.373Z,95122.75
2022-09-20T23:26:25.471Z,95128.94
2022-09-20T23:28:57.116Z,95138.84
2022-09-20T23:31:24.608Z,95130.69
2022-09-20T23:33:54.229Z,95137.19
2022-09-20T23:36:21.976Z,95134.91
2022-09-20T23:38:49.193Z,95131.22
2022-09-20T23:41:18.722Z,95132.28
2022-09-20T23:43:45.632Z,95138.91
2022-09-20T23:46:14.037Z,95135.84
2022-09-20T23:48:44.321Z,95142.16
2022-09-20T23:51:13.860Z,95138.38
2022-09-20T23:53:41.344Z,95148.03
2022-09-20T23:56:09.697Z,95147.78
2022-09-20T23:58:37.430Z,95143.75
